sensor_id;sensor_type;location;lat;lon;timestamp;pressure;altitude;pressure_sealevel;temperature;humidity
15272;BME280;7737;51.578;7.268;2023-04-15T00:01:47;100318.19;;;6.55;100.00
15272;BME280;7737;51.578;7.268;2023-04-15T00:04:14;100310.34;;;6.53;100.00
15272;BME280;7737;51.578;7.268;2023-04-15T00:06:40;100311.94;;;6.57;100.00
15272;BME280;7737;51.578;7.268;2023-04-15T00:09:07;100318.72;;;6.41;100.00
15272;BME280;7737;51.578;7.268;2023-04-15T00:11:35;100311.38;;;6.49;100.00
15272;BME280;7737;51.578;7.268;2023-04-15T00:14:01;100317.22;;;6.57;100.00
15272;BME280;7737;51.578;7.268;2023-04-15T00:16:28;100316.06;;;6.64;100.00
15272;BME280;7737;51.578;7.268;2023-04-15T00:18:55;100306.06;;;6.51;100.00
15272;BME280;7737;51.578;7.268;2023-04-15T00:21:21;100308.38;;;6.58;100.00
15272;BME280;7737;51.578;7.268;2023-04-15T00:23:48;100308.94;;;6.66;100.00
15272;BME280;7737;51.578;7.268;2023-04-15T00:26:17;100313.28;;;6.67;100.00
15272;BME280;7737;51.578;7.268;2023-04-15T00:28:46;100308.84;;;6.46;100.00
15272;BME280;7737;51.578;7.268;2023-04-15T00:31:12;100307.25;;;6.42;100.00
15272;BME280;7737;51.578;7.268;2023-04-15T00:33:39;100312.44;;;6.45;100.00
15272;BME280;7737;51.578;7.268;2023-04-15T00:36:06;100314.63;;;6.34;100.00
15272;BME280;7737;51.578;7.268;2023-04-15T00:38:34;100314.16;;;6.23;100.00
15272;BME280;7737;51.578;7.268;2023-04-15T00:41:02;100312.47;;;6.22;100.00
15272;BME280;7737;51.578;7.268;2023-04-15T00:43:28;100313.56;;;6.17;100.00
15272;BME280;7737;51.578;7.268;2023-04-15T00:45:57;100310.97;;;6.15;100.00
15272;BME280;7737;51.578;7.268;2023-04-15T00:48:25;100312.50;;;6.21;100.00
15272;BME280;7737;51.578;7.268;2023-04-15T00:50:52;100298.03;;;6.31;100.00
15272;BME280;7737;51.578;7.268;2023-04-15T00:53:18;100310.63;;;6.24;100.00
15272;BME280;7737;51.578;7.268;2023-04-15T00:55:45;100308.09;;;6.21;100.00
15272;BME280;7737;51.578;7.268;2023-04-15T00:58:11;100307.28;;;6.19;100.00
15272;BME280;7737;51.578;7.268;2023-04-15T01:00:38;100308.44;;;5.89;100.00
15272;BME280;7737;51.578;7.268;2023-04-15T01:03:06;100310.06;;;5.93;100.00
15272;BME280;7737;51.578;7.268;2023-04-15T01:05:34;100317.41;;;5.83;100.00
15272;BME280;7737;51.578;7.268;2023-04-15T01:08:01;100309.47;;;5.85;100.00
15272;BME280;7737;51.578;7.268;2023-04-15T01:10:28;100321.19;;;5.76;100.00
15272;BME280;7737;51.578;7.268;2023-04-15T01:12:54;100318.59;;;5.75;100.00
15272;BME280;7737;51.578;7.268;2023-04-15T01:15:21;100314.63;;;5.88;100.00
15272;BME280;7737;51.578;7.268;2023-04-15T01:17:47;100324.53;;;5.57;100.00
15272;BME280;7737;51.578;7.268;2023-04-15T01:20:16;100319.81;;;5.41;100.00
15272;BME280;7737;51.578;7.268;2023-04-15T01:22:43;100315.53;;;5.62;100.00
15272;BME280;7737;51.578;7.268;2023-04-15T01:25:12;100311.19;;;5.61;100.00
15272;BME280;7737;51.578;7.268;2023-04-15T01:27:42;100321.09;;;5.54;100.00
15272;BME280;7737;51.578;7.268;2023-04-15T01:30:10;100318.03;;;5.42;100.00
15272;BME280;7737;51.578;7.268;2023-04-15T01:32:36;100316.56;;;5.33;100.00
15272;BME280;7737;51.578;7.268;2023-04-15T01:35:03;100315.59;;;5.36;100.00
15272;BME280;7737;51.578;7.268;2023-04-15T01:37:30;100317.38;;;5.35;100.00
15272;BME280;7737;51.578;7.268;2023-04-15T01:39:57;100307.53;;;5.40;100.00
15272;BME280;7737;51.578;7.268;2023-04-15T01:42:24;100308.47;;;5.39;100.00
15272;BME280;7737;51.578;7.268;2023-04-15T01:48:13;100311.09;;;5.39;100.00
15272;BME280;7737;51.578;7.268;2023-04-15T01:50:41;100311.59;;;5.24;100.00
15272;BME280;7737;51.578;7.268;2023-04-15T01:53:07;100320.44;;;5.23;100.00
15272;BME280;7737;51.578;7.268;2023-04-15T01:55:35;100328.63;;;4.89;100.00
15272;BME280;7737;51.578;7.268;2023-04-15T01:58:01;100334.78;;;4.61;100.00
15272;BME280;7737;51.578;7.268;2023-04-15T02:00:28;100331.34;;;4.59;100.00
15272;BME280;7737;51.578;7.268;2023-04-15T02:02:56;100340.13;;;4.85;100.00
15272;BME280;7737;51.578;7.268;2023-04-15T02:05:24;100332.78;;;4.95;100.00
15272;BME280;7737;51.578;7.268;2023-04-15T02:07:52;100324.75;;;5.00;100.00
15272;BME280;7737;51.578;7.268;2023-04-15T02:10:18;100323.47;;;4.85;100.00
15272;BME280;7737;51.578;7.268;2023-04-15T02:12:45;100334.53;;;4.96;100.00
15272;BME280;7737;51.578;7.268;2023-04-15T02:15:12;100331.47;;;4.82;100.00
15272;BME280;7737;51.578;7.268;2023-04-15T02:17:38;100331.25;;;4.89;100.00
15272;BME280;7737;51.578;7.268;2023-04-15T02:20:06;100334.59;;;4.67;100.00
15272;BME280;7737;51.578;7.268;2023-04-15T02:22:34;100339.50;;;4.79;100.00
15272;BME280;7737;51.578;7.268;2023-04-15T02:25:00;100337.84;;;4.75;100.00
15272;BME280;7737;51.578;7.268;2023-04-15T02:27:27;100337.94;;;4.72;100.00
15272;BME280;7737;51.578;7.268;2023-04-15T02:29:54;100336.88;;;4.77;100.00
15272;BME280;7737;51.578;7.268;2023-04-15T02:32:21;100349.00;;;4.83;100.00
15272;BME280;7737;51.578;7.268;2023-04-15T02:34:48;100346.44;;;4.81;100.00
15272;BME280;7737;51.578;7.268;2023-04-15T02:37:15;100340.13;;;4.85;100.00
15272;BME280;7737;51.578;7.268;2023-04-15T02:39:44;100344.63;;;4.82;100.00
15272;BME280;7737;51.578;7.268;2023-04-15T02:42:11;100352.75;;;4.76;100.00
15272;BME280;7737;51.578;7.268;2023-04-15T02:44:38;100343.03;;;4.78;100.00
15272;BME280;7737;51.578;7.268;2023-04-15T02:47:04;100348.38;;;4.75;100.00
15272;BME280;7737;51.578;7.268;2023-04-15T02:49:31;100351.19;;;4.69;100.00
15272;BME280;7737;51.578;7.268;2023-04-15T02:51:58;100353.97;;;4.66;100.00
15272;BME280;7737;51.578;7.268;2023-04-15T02:54:25;100367.47;;;4.54;100.00
15272;BME280;7737;51.578;7.268;2023-04-15T02:56:54;100368.50;;;4.50;100.00
15272;BME280;7737;51.578;7.268;2023-04-15T02:59:21;100371.88;;;4.53;100.00
15272;BME280;7737;51.578;7.268;2023-04-15T03:01:47;100369.53;;;4.44;100.00
15272;BME280;7737;51.578;7.268;2023-04-15T03:04:14;100372.19;;;4.43;100.00
15272;BME280;7737;51.578;7.268;2023-04-15T03:06:40;100379.75;;;4.55;100.00
15272;BME280;7737;51.578;7.268;2023-04-15T03:09:07;100370.50;;;4.42;100.00
15272;BME280;7737;51.578;7.268;2023-04-15T03:11:34;100376.72;;;4.39;100.00
15272;BME280;7737;51.578;7.268;2023-04-15T03:14:06;100377.59;;;4.38;100.00
15272;BME280;7737;51.578;7.268;2023-04-15T03:16:32;100389.97;;;4.05;100.00
15272;BME280;7737;51.578;7.268;2023-04-15T03:18:58;100379.84;;;4.22;100.00
15272;BME280;7737;51.578;7.268;2023-04-15T03:21:25;100394.06;;;4.15;100.00
15272;BME280;7737;51.578;7.268;2023-04-15T03:23:51;100393.06;;;4.19;100.00
15272;BME280;7737;51.578;7.268;2023-04-15T03:26:26;100399.97;;;4.23;100.00
15272;BME280;7737;51.578;7.268;2023-04-15T03:28:53;100391.25;;;4.21;100.00
15272;BME280;7737;51.578;7.268;2023-04-15T03:31:21;100391.94;;;4.28;100.00
15272;BME280;7737;51.578;7.268;2023-04-15T03:33:47;100387.31;;;4.36;100.00
15272;BME280;7737;51.578;7.268;2023-04-15T03:36:15;100391.63;;;4.39;100.00
15272;BME280;7737;51.578;7.268;2023-04-15T03:38:42;100390.75;;;4.38;100.00
15272;BME280;7737;51.578;7.268;2023-04-15T03:41:08;100390.63;;;4.43;100.00
15272;BME280;7737;51.578;7.268;2023-04-15T03:43:35;100396.13;;;4.35;100.00
15272;BME280;7737;51.578;7.268;2023-04-15T03:46:01;100388.06;;;4.40;100.00
15272;BME280;7737;51.578;7.268;2023-04-15T03:48:29;100393.25;;;4.43;100.00
15272;BME280;7737;51.578;7.268;2023-04-15T03:50:56;100396.59;;;4.48;100.00
15272;BME280;7737;51.578;7.268;2023-04-15T03:53:22;100395.00;;;4.44;100.00
15272;BME280;7737;51.578;7.268;2023-04-15T03:55:49;100397.69;;;4.41;100.00
15272;BME280;7737;51.578;7.268;2023-04-15T03:58:15;100394.81;;;4.50;100.00
15272;BME280;7737;51.578;7.268;2023-04-15T04:00:43;100397.44;;;4.50;100.00
15272;BME280;7737;51.578;7.268;2023-04-15T04:03:09;100404.28;;;4.55;100.00
15272;BME280;7737;51.578;7.268;2023-04-15T04:05:37;100399.97;;;4.53;100.00
15272;BME280;7737;51.578;7.268;2023-04-15T04:08:05;100401.06;;;4.46;100.00
15272;BME280;7737;51.578;7.268;2023-04-15T04:10:32;100406.31;;;4.46;100.00
15272;BME280;7737;51.578;7.268;2023-04-15T04:12:58;100407.97;;;4.50;100.00
15272;BME280;7737;51.578;7.268;2023-04-15T04:15:25;100405.59;;;4.41;100.00
15272;BME280;7737;51.578;7.268;2023-04-15T04:17:52;100404.72;;;4.40;100.00
15272;BME280;7737;51.578;7.268;2023-04-15T04:20:18;100403.84;;;4.41;100.00
15272;BME280;7737;51.578;7.268;2023-04-15T04:22:46;100410.63;;;4.48;100.00
15272;BME280;7737;51.578;7.268;2023-04-15T04:25:13;100413.25;;;4.48;100.00
15272;BME280;7737;51.578;7.268;2023-04-15T04:27:39;100417.06;;;4.38;100.00
15272;BME280;7737;51.578;7.268;2023-04-15T04:30:07;100412.69;;;4.39;100.00
15272;BME280;7737;51.578;7.268;2023-04-15T04:32:34;100416.28;;;4.35;100.00
15272;BME280;7737;51.578;7.268;2023-04-15T04:35:00;100423.47;;;4.29;100.00
15272;BME280;7737;51.578;7.268;2023-04-15T04:37:26;100425.06;;;4.35;100.00
15272;BME280;7737;51.578;7.268;2023-04-15T04:39:54;100423.47;;;4.29;100.00
15272;BME280;7737;51.578;7.268;2023-04-15T04:42:21;100423.28;;;4.36;100.00
15272;BME280;7737;51.578;7.268;2023-04-15T04:44:47;100427.09;;;4.25;100.00
15272;BME280;7737;51.578;7.268;2023-04-15T04:47:14;100427.09;;;4.25;100.00
15272;BME280;7737;51.578;7.268;2023-04-15T04:49:40;100434.19;;;4.23;100.00
15272;BME280;7737;51.578;7.268;2023-04-15T04:52:07;100430.47;;;4.30;100.00
15272;BME280;7737;51.578;7.268;2023-04-15T04:54:33;100434.84;;;4.30;100.00
15272;BME280;7737;51.578;7.268;2023-04-15T04:57:01;100446.06;;;4.37;100.00
15272;BME280;7737;51.578;7.268;2023-04-15T04:59:27;100447.94;;;4.31;100.00
15272;BME280;7737;51.578;7.268;2023-04-15T05:01:54;100450.47;;;4.36;100.00
15272;BME280;7737;51.578;7.268;2023-04-15T05:04:21;100453.31;;;4.28;100.00
15272;BME280;7737;51.578;7.268;2023-04-15T05:06:47;100450.63;;;4.30;100.00
15272;BME280;7737;51.578;7.268;2023-04-15T05:09:14;100454.94;;;4.32;100.00
15272;BME280;7737;51.578;7.268;2023-04-15T05:11:40;100456.69;;;4.34;100.00
15272;BME280;7737;51.578;7.268;2023-04-15T05:14:08;100461.22;;;4.28;100.00
15272;BME280;7737;51.578;7.268;2023-04-15T05:16:34;100462.19;;;4.24;100.00
15272;BME280;7737;51.578;7.268;2023-04-15T05:19:01;100466.50;;;4.27;100.00
15272;BME280;7737;51.578;7.268;2023-04-15T05:21:28;100470.81;;;4.29;100.00
15272;BME280;7737;51.578;7.268;2023-04-15T05:23:55;100483.09;;;4.29;100.00
15272;BME280;7737;51.578;7.268;2023-04-15T05:26:21;100474.38;;;4.28;100.00
15272;BME280;7737;51.578;7.268;2023-04-15T05:28:48;100475.22;;;4.29;100.00
15272;BME280;7737;51.578;7.268;2023-04-15T05:31:16;100483.66;;;4.42;100.00
15272;BME280;7737;51.578;7.268;2023-04-15T05:33:42;100484.28;;;4.50;100.00
15272;BME280;7737;51.578;7.268;2023-04-15T05:36:09;100481.38;;;4.59;100.00
15272;BME280;7737;51.578;7.268;2023-04-15T05:38:36;100487.38;;;4.64;100.00
15272;BME280;7737;51.578;7.268;2023-04-15T05:41:02;100494.19;;;4.71;100.00
15272;BME280;7737;51.578;7.268;2023-04-15T05:43:29;100491.19;;;4.83;100.00
15272;BME280;7737;51.578;7.268;2023-04-15T05:45:55;100492.63;;;4.93;100.00
15272;BME280;7737;51.578;7.268;2023-04-15T05:48:23;100490.72;;;4.98;100.00
15272;BME280;7737;51.578;7.268;2023-04-15T05:50:50;100493.09;;;5.07;100.00
15272;BME280;7737;51.578;7.268;2023-04-15T05:53:16;100492.91;;;5.13;100.00
15272;BME280;7737;51.578;7.268;2023-04-15T05:55:43;100499.63;;;5.22;100.00
15272;BME280;7737;51.578;7.268;2023-04-15T05:58:09;100500.50;;;5.22;100.00
15272;BME280;7737;51.578;7.268;2023-04-15T06:00:36;100502.81;;;5.33;100.00
15272;BME280;7737;51.578;7.268;2023-04-15T06:03:03;100512.34;;;5.37;100.00
15272;BME280;7737;51.578;7.268;2023-04-15T06:05:31;100511.31;;;5.42;100.00
15272;BME280;7737;51.578;7.268;2023-04-15T06:07:58;100512.63;;;5.56;100.00
15272;BME280;7737;51.578;7.268;2023-04-15T06:10:25;100510.63;;;5.64;100.00
15272;BME280;7737;51.578;7.268;2023-04-15T06:12:52;100515.66;;;5.70;100.00
15272;BME280;7737;51.578;7.268;2023-04-15T06:15:18;100522.25;;;5.83;100.00
15272;BME280;7737;51.578;7.268;2023-04-15T06:17:45;100521.53;;;5.78;100.00
15272;BME280;7737;51.578;7.268;2023-04-15T06:20:11;100518.41;;;5.67;100.00
15272;BME280;7737;51.578;7.268;2023-04-15T06:22:39;100526.72;;;5.81;100.00
15272;BME280;7737;51.578;7.268;2023-04-15T06:25:07;100532.75;;;5.86;100.00
15272;BME280;7737;51.578;7.268;2023-04-15T06:27:34;100539.22;;;6.02;100.00
15272;BME280;7737;51.578;7.268;2023-04-15T06:30:00;100537.19;;;6.10;100.00
15272;BME280;7737;51.578;7.268;2023-04-15T06:32:27;100538.41;;;6.26;100.00
15272;BME280;7737;51.578;7.268;2023-04-15T06:34:53;100535.91;;;6.22;100.00
15272;BME280;7737;51.578;7.268;2023-04-15T06:37:20;100539.75;;;6.38;100.00
15272;BME280;7737;51.578;7.268;2023-04-15T06:39:48;100536.88;;;6.44;100.00
15272;BME280;7737;51.578;7.268;2023-04-15T06:42:14;100540.94;;;6.54;100.00
15272;BME280;7737;51.578;7.268;2023-04-15T06:44:41;100536.00;;;6.68;100.00
15272;BME280;7737;51.578;7.268;2023-04-15T06:47:07;100539.22;;;6.76;100.00
15272;BME280;7737;51.578;7.268;2023-04-15T06:49:34;100537.25;;;6.81;100.00
15272;BME280;7737;51.578;7.268;2023-04-15T06:52:01;100543.00;;;6.92;100.00
15272;BME280;7737;51.578;7.268;2023-04-15T06:54:29;100539.28;;;6.98;100.00
15272;BME280;7737;51.578;7.268;2023-04-15T06:56:57;100549.53;;;7.07;100.00
15272;BME280;7737;51.578;7.268;2023-04-15T06:59:23;100542.03;;;7.18;100.00
15272;BME280;7737;51.578;7.268;2023-04-15T07:01:50;100543.25;;;7.31;100.00
15272;BME280;7737;51.578;7.268;2023-04-15T07:04:16;100547.41;;;7.38;100.00
15272;BME280;7737;51.578;7.268;2023-04-15T07:06:43;100540.72;;;7.51;100.00
15272;BME280;7737;51.578;7.268;2023-04-15T07:09:09;100545.88;;;7.54;100.00
15272;BME280;7737;51.578;7.268;2023-04-15T07:11:36;100540.66;;;7.74;100.00
15272;BME280;7737;51.578;7.268;2023-04-15T07:14:03;100541.44;;;7.76;100.00
15272;BME280;7737;51.578;7.268;2023-04-15T07:16:31;100539.22;;;7.87;100.00
15272;BME280;7737;51.578;7.268;2023-04-15T07:18:57;100539.22;;;7.87;100.00
15272;BME280;7737;51.578;7.268;2023-04-15T07:21:24;100547.03;;;7.90;100.00
15272;BME280;7737;51.578;7.268;2023-04-15T07:23:51;100549.81;;;8.08;100.00
15272;BME280;7737;51.578;7.268;2023-04-15T07:26:18;100547.38;;;8.03;100.00
15272;BME280;7737;51.578;7.268;2023-04-15T07:28:44;100556.06;;;8.07;100.00
15272;BME280;7737;51.578;7.268;2023-04-15T07:31:13;100552.09;;;8.17;100.00
15272;BME280;7737;51.578;7.268;2023-04-15T07:33:40;100547.91;;;8.11;100.00
15272;BME280;7737;51.578;7.268;2023-04-15T07:36:07;100549.38;;;8.18;100.00
15272;BME280;7737;51.578;7.268;2023-04-15T07:38:33;100549.84;;;8.49;100.00
15272;BME280;7737;51.578;7.268;2023-04-15T07:41:00;100553.06;;;8.36;100.00
15272;BME280;7737;51.578;7.268;2023-04-15T07:43:26;100550.66;;;8.50;100.00
15272;BME280;7737;51.578;7.268;2023-04-15T07:45:53;100554.66;;;8.40;100.00
15272;BME280;7737;51.578;7.268;2023-04-15T07:48:21;100551.28;;;8.56;100.00
15272;BME280;7737;51.578;7.268;2023-04-15T07:50:47;100552.41;;;8.51;100.00
15272;BME280;7737;51.578;7.268;2023-04-15T07:53:14;100548.16;;;8.67;100.00
15272;BME280;7737;51.578;7.268;2023-04-15T07:55:40;100559.78;;;8.83;100.00
15272;BME280;7737;51.578;7.268;2023-04-15T07:58:07;100559.78;;;8.83;100.00
15272;BME280;7737;51.578;7.268;2023-04-15T08:00:33;100564.91;;;9.06;100.00
15272;BME280;7737;51.578;7.268;2023-04-15T08:03:00;100551.50;;;8.91;100.00
15272;BME280;7737;51.578;7.268;2023-04-15T08:05:28;100547.88;;;9.31;100.00
15272;BME280;7737;51.578;7.268;2023-04-15T08:07:55;100557.88;;;9.43;100.00
15272;BME280;7737;51.578;7.268;2023-04-15T08:10:22;100554.53;;;9.02;100.00
15272;BME280;7737;51.578;7.268;2023-04-15T08:12:49;100549.72;;;9.29;100.00
15272;BME280;7737;51.578;7.268;2023-04-15T08:15:18;100553.44;;;9.43;100.00
15272;BME280;7737;51.578;7.268;2023-04-15T08:17:45;100557.22;;;9.56;100.00
15272;BME280;7737;51.578;7.268;2023-04-15T08:20:12;100557.09;;;9.41;100.00
15272;BME280;7737;51.578;7.268;2023-04-15T08:22:40;100561.66;;;9.56;100.00
15272;BME280;7737;51.578;7.268;2023-04-15T08:25:07;100558.59;;;9.65;100.00
15272;BME280;7737;51.578;7.268;2023-04-15T08:27:34;100560.00;;;9.72;100.00
15272;BME280;7737;51.578;7.268;2023-04-15T08:30:01;100554.00;;;9.68;100.00
15272;BME280;7737;51.578;7.268;2023-04-15T08:32:28;100553.94;;;9.51;100.00
15272;BME280;7737;51.578;7.268;2023-04-15T08:34:55;100555.16;;;9.63;100.00
15272;BME280;7737;51.578;7.268;2023-04-15T08:37:22;100561.09;;;9.68;100.00
15272;BME280;7737;51.578;7.268;2023-04-15T08:39:50;100554.50;;;9.76;100.00
15272;BME280;7737;51.578;7.268;2023-04-15T08:42:16;100555.56;;;10.08;100.00
15272;BME280;7737;51.578;7.268;2023-04-15T08:44:45;100558.41;;;10.39;100.00
15272;BME280;7737;51.578;7.268;2023-04-15T08:47:13;100558.84;;;10.30;100.00
15272;BME280;7737;51.578;7.268;2023-04-15T08:49:41;100563.47;;;10.61;100.00
15272;BME280;7737;51.578;7.268;2023-04-15T08:52:08;100562.75;;;10.75;100.00
15272;BME280;7737;51.578;7.268;2023-04-15T08:54:35;100559.19;;;10.42;100.00
15272;BME280;7737;51.578;7.268;2023-04-15T08:57:05;100558.53;;;10.19;100.00
15272;BME280;7737;51.578;7.268;2023-04-15T08:59:33;100565.84;;;9.97;100.00
15272;BME280;7737;51.578;7.268;2023-04-15T09:02:00;100571.00;;;10.00;100.00
15272;BME280;7737;51.578;7.268;2023-04-15T09:04:27;100568.97;;;10.05;100.00
15272;BME280;7737;51.578;7.268;2023-04-15T09:06:54;100569.97;;;10.38;100.00
15272;BME280;7737;51.578;7.268;2023-04-15T09:09:21;100569.88;;;10.23;100.00
15272;BME280;7737;51.578;7.268;2023-04-15T09:11:48;100583.09;;;10.24;100.00
15272;BME280;7737;51.578;7.268;2023-04-15T09:14:17;100588.31;;;10.26;100.00
15272;BME280;7737;51.578;7.268;2023-04-15T09:16:56;100589.78;;;10.14;100.00
15272;BME280;7737;51.578;7.268;2023-04-15T09:19:24;100593.06;;;10.19;100.00
15272;BME280;7737;51.578;7.268;2023-04-15T09:21:52;100590.84;;;10.10;100.00
15272;BME280;7737;51.578;7.268;2023-04-15T09:24:19;100593.94;;;10.20;100.00
15272;BME280;7737;51.578;7.268;2023-04-15T09:26:46;100602.91;;;10.17;100.00
15272;BME280;7737;51.578;7.268;2023-04-15T09:29:12;100602.91;;;10.17;100.00
15272;BME280;7737;51.578;7.268;2023-04-15T09:31:40;100609.38;;;10.48;100.00
15272;BME280;7737;51.578;7.268;2023-04-15T09:34:07;100608.19;;;10.53;100.00
15272;BME280;7737;51.578;7.268;2023-04-15T09:36:51;100612.69;;;10.17;100.00
15272;BME280;7737;51.578;7.268;2023-04-15T09:39:18;100609.66;;;10.42;100.00
15272;BME280;7737;51.578;7.268;2023-04-15T09:41:45;100608.09;;;10.55;100.00
15272;BME280;7737;51.578;7.268;2023-04-15T09:44:21;100608.09;;;10.55;100.00
15272;BME280;7737;51.578;7.268;2023-04-15T09:46:49;100610.00;;;10.53;100.00
15272;BME280;7737;51.578;7.268;2023-04-15T09:49:16;100609.81;;;10.90;100.00
15272;BME280;7737;51.578;7.268;2023-04-15T09:51:43;100611.28;;;10.78;100.00
15272;BME280;7737;51.578;7.268;2023-04-15T09:54:10;100611.69;;;10.88;100.00
15272;BME280;7737;51.578;7.268;2023-04-15T09:56:38;100616.84;;;10.74;100.00
15272;BME280;7737;51.578;7.268;2023-04-15T09:59:06;100621.56;;;10.69;100.00
15272;BME280;7737;51.578;7.268;2023-04-15T10:01:33;100630.59;;;10.30;100.00
15272;BME280;7737;51.578;7.268;2023-04-15T10:04:02;100624.41;;;10.30;100.00
15272;BME280;7737;51.578;7.268;2023-04-15T10:06:29;100628.91;;;10.47;100.00
15272;BME280;7737;51.578;7.268;2023-04-15T10:08:56;100635.66;;;10.18;100.00
15272;BME280;7737;51.578;7.268;2023-04-15T10:11:26;100631.22;;;10.18;100.00
15272;BME280;7737;51.578;7.268;2023-04-15T10:13:54;100633.78;;;10.01;100.00
15272;BME280;7737;51.578;7.268;2023-04-15T10:16:25;100639.53;;;10.11;100.00
15272;BME280;7737;51.578;7.268;2023-04-15T10:18:54;100639.72;;;10.06;100.00
15272;BME280;7737;51.578;7.268;2023-04-15T10:21:22;100634.50;;;10.23;100.00
15272;BME280;7737;51.578;7.268;2023-04-15T10:23:50;100635.16;;;10.63;100.00
15272;BME280;7737;51.578;7.268;2023-04-15T10:26:17;100638.69;;;10.63;100.00
15272;BME280;7737;51.578;7.268;2023-04-15T10:28:43;100646.91;;;10.59;100.00
15272;BME280;7737;51.578;7.268;2023-04-15T10:31:11;100647.44;;;10.12;100.00
15272;BME280;7737;51.578;7.268;2023-04-15T10:33:39;100637.78;;;10.28;100.00
15272;BME280;7737;51.578;7.268;2023-04-15T10:36:07;100644.06;;;10.45;100.00
15272;BME280;7737;51.578;7.268;2023-04-15T10:38:36;100657.16;;;10.30;100.00
15272;BME280;7737;51.578;7.268;2023-04-15T10:41:14;100650.44;;;10.23;100.00
15272;BME280;7737;51.578;7.268;2023-04-15T10:43:46;100651.69;;;10.16;100.00
15272;BME280;7737;51.578;7.268;2023-04-15T10:46:13;100662.94;;;10.21;100.00
15272;BME280;7737;51.578;7.268;2023-04-15T10:48:46;100669.28;;;10.19;100.00
15272;BME280;7737;51.578;7.268;2023-04-15T10:51:13;100670.44;;;10.13;100.00
15272;BME280;7737;51.578;7.268;2023-04-15T10:53:42;100671.75;;;10.22;100.00
15272;BME280;7737;51.578;7.268;2023-04-15T10:56:09;100666.66;;;10.17;100.00
15272;BME280;7737;51.578;7.268;2023-04-15T10:58:40;100671.69;;;10.05;100.00
15272;BME280;7737;51.578;7.268;2023-04-15T11:01:07;100678.16;;;10.18;100.00
15272;BME280;7737;51.578;7.268;2023-04-15T11:03:36;100672.94;;;10.16;100.00
15272;BME280;7737;51.578;7.268;2023-04-15T11:06:03;100669.97;;;10.22;100.00
15272;BME280;7737;51.578;7.268;2023-04-15T11:08:56;100671.50;;;10.45;100.00
15272;BME280;7737;51.578;7.268;2023-04-15T11:14:24;100686.63;;;10.07;100.00
15272;BME280;7737;51.578;7.268;2023-04-15T11:16:51;100682.31;;;10.23;100.00
15272;BME280;7737;51.578;7.268;2023-04-15T11:19:17;100687.28;;;10.12;100.00
15272;BME280;7737;51.578;7.268;2023-04-15T11:21:44;100679.56;;;10.25;100.00
15272;BME280;7737;51.578;7.268;2023-04-15T11:24:22;100683.34;;;10.38;100.00
15272;BME280;7737;51.578;7.268;2023-04-15T11:26:56;100687.34;;;10.29;100.00
15272;BME280;7737;51.578;7.268;2023-04-15T11:29:28;100690.63;;;10.34;100.00
15272;BME280;7737;51.578;7.268;2023-04-15T11:32:03;100690.78;;;10.31;100.00
15272;BME280;7737;51.578;7.268;2023-04-15T11:34:31;100685.47;;;10.31;100.00
15272;BME280;7737;51.578;7.268;2023-04-15T11:36:57;100699.38;;;10.36;100.00
15272;BME280;7737;51.578;7.268;2023-04-15T11:39:28;100702.53;;;10.45;100.00
15272;BME280;7737;51.578;7.268;2023-04-15T11:41:54;100706.25;;;10.40;100.00
15272;BME280;7737;51.578;7.268;2023-04-15T11:44:21;100714.94;;;10.27;100.00
15272;BME280;7737;51.578;7.268;2023-04-15T11:46:47;100710.63;;;10.24;100.00
15272;BME280;7737;51.578;7.268;2023-04-15T11:49:25;100715.69;;;10.10;100.00
15272;BME280;7737;51.578;7.268;2023-04-15T11:51:51;100707.28;;;10.19;100.00
15272;BME280;7737;51.578;7.268;2023-04-15T11:54:18;100713.41;;;10.21;100.00
15272;BME280;7737;51.578;7.268;2023-04-15T11:56:50;100719.66;;;10.20;100.00
15272;BME280;7737;51.578;7.268;2023-04-15T11:59:19;100712.31;;;10.25;100.00
15272;BME280;7737;51.578;7.268;2023-04-15T12:01:45;100735.09;;;10.12;100.00
15272;BME280;7737;51.578;7.268;2023-04-15T12:04:13;100721.53;;;10.18;100.00
15272;BME280;7737;51.578;7.268;2023-04-15T12:06:41;100718.66;;;10.23;100.00
15272;BME280;7737;51.578;7.268;2023-04-15T12:09:09;100724.84;;;10.23;100.00
15272;BME280;7737;51.578;7.268;2023-04-15T12:11:41;100730.34;;;10.37;100.00
15272;BME280;7737;51.578;7.268;2023-04-15T12:14:11;100726.84;;;10.18;100.00
15272;BME280;7737;51.578;7.268;2023-04-15T12:16:40;100731.66;;;10.29;100.00
15272;BME280;7737;51.578;7.268;2023-04-15T12:19:11;100727.84;;;10.34;100.00
15272;BME280;7737;51.578;7.268;2023-04-15T12:21:39;100731.69;;;10.27;100.00
15272;BME280;7737;51.578;7.268;2023-04-15T12:24:08;100740.75;;;10.42;100.00
15272;BME280;7737;51.578;7.268;2023-04-15T12:26:37;100742.38;;;10.45;100.00
15272;BME280;7737;51.578;7.268;2023-04-15T12:29:10;100738.63;;;10.49;100.00
15272;BME280;7737;51.578;7.268;2023-04-15T12:31:46;100737.31;;;10.40;100.00
15272;BME280;7737;51.578;7.268;2023-04-15T12:34:13;100742.31;;;10.46;100.00
15272;BME280;7737;51.578;7.268;2023-04-15T12:36:41;100752.91;;;10.65;100.00
15272;BME280;7737;51.578;7.268;2023-04-15T12:39:08;100751.06;;;10.67;100.00
15272;BME280;7737;51.578;7.268;2023-04-15T12:41:34;100758.53;;;10.59;100.00
15272;BME280;7737;51.578;7.268;2023-04-15T12:44:01;100760.50;;;10.72;100.00
15272;BME280;7737;51.578;7.268;2023-04-15T12:46:29;100764.97;;;10.72;100.00
15272;BME280;7737;51.578;7.268;2023-04-15T12:48:55;100761.50;;;10.70;100.00
15272;BME280;7737;51.578;7.268;2023-04-15T12:51:22;100763.69;;;10.62;100.00
15272;BME280;7737;51.578;7.268;2023-04-15T12:53:49;100762.94;;;10.77;100.00
15272;BME280;7737;51.578;7.268;2023-04-15T12:56:16;100764.50;;;10.81;100.00
15272;BME280;7737;51.578;7.268;2023-04-15T12:58:42;100776.25;;;10.94;100.00
15272;BME280;7737;51.578;7.268;2023-04-15T13:01:09;100771.56;;;10.82;100.00
15272;BME280;7737;51.578;7.268;2023-04-15T13:03:37;100777.13;;;10.94;100.00
15272;BME280;7737;51.578;7.268;2023-04-15T13:06:03;100775.53;;;10.73;100.00